Time,TemperatureF,DewpointF,PressureIn,WindDirection,WindDirectionDegrees,WindSpeedMPH,WindSpeedGustMPH,Humidity,HourlyPrecipIn,Conditions,Clouds,dailyrainin,SoftwareType,DateUTC
2013-06-06 00:01:00,66.4,55.0,29.92,East,90,0.0,-999.0,67,0.00,,,0.00,open2300 v1.10,2013-06-06 04:01:00,
2013-06-06 00:11:00,66.4,55.0,29.91,East,90,0.0,-999.0,67,0.00,,,0.00,open2300 v1.10,2013-06-06 04:11:00,
2013-06-06 00:21:00,66.4,55.0,29.92,East,90,0.0,-999.0,67,0.00,,,0.00,open2300 v1.10,2013-06-06 04:21:00,
2013-06-06 00:31:00,66.2,54.9,29.91,East,90,0.0,-999.0,67,0.00,,,0.00,open2300 v1.10,2013-06-06 04:31:00,
2013-06-06 00:41:00,66.4,54.6,29.91,East,90,0.0,-999.0,66,0.00,,,0.00,open2300 v1.10,2013-06-06 04:41:00,
2013-06-06 00:51:00,66.7,54.5,29.91,East,90,0.0,-999.0,65,0.00,,,0.00,open2300 v1.10,2013-06-06 04:51:00,
2013-06-06 01:11:00,66.6,54.4,29.91,East,90,0.0,-999.0,65,0.00,,,0.00,open2300 v1.10,2013-06-06 05:11:00,
2013-06-06 01:21:00,66.4,54.2,29.91,East,90,0.0,-999.0,65,0.00,,,0.00,open2300 v1.10,2013-06-06 05:21:00,
2013-06-06 01:31:00,66.0,53.9,29.91,East,90,0.0,-999.0,65,0.00,,,0.00,open2300 v1.10,2013-06-06 05:31:00,
2013-06-06 01:41:00,66.0,53.9,29.90,East,90,0.0,-999.0,65,0.00,,,0.00,open2300 v1.10,2013-06-06 05:41:00,
2013-06-06 01:51:00,65.8,53.3,29.90,East,90,0.0,-999.0,64,0.00,,,0.00,open2300 v1.10,2013-06-06 05:51:00,
2013-06-06 02:01:00,65.5,52.9,29.90,East,90,0.0,-999.0,64,0.00,,,0.00,open2300 v1.10,2013-06-06 06:01:00,
2013-06-06 02:11:00,65.5,52.5,29.90,NNE,22,0.0,-999.0,63,0.00,,,0.00,open2300 v1.10,2013-06-06 06:11:00,
2013-06-06 02:21:00,65.3,51.5,29.89,NNE,22,0.0,-999.0,61,0.00,,,0.00,open2300 v1.10,2013-06-06 06:21:00,
2013-06-06 02:31:00,65.1,50.9,29.90,NNE,22,0.0,-999.0,60,0.00,,,0.00,open2300 v1.10,2013-06-06 06:31:00,
2013-06-06 02:41:00,64.9,50.2,29.89,NNE,22,0.0,-999.0,59,0.00,,,0.00,open2300 v1.10,2013-06-06 06:41:00,
2013-06-06 02:51:00,64.6,49.9,29.89,NNE,22,0.0,-999.0,59,0.00,,,0.00,open2300 v1.10,2013-06-06 06:51:00,
2013-06-06 03:01:00,64.2,49.5,29.88,NNE,22,0.0,-999.0,59,0.00,,,0.00,open2300 v1.10,2013-06-06 07:01:00,
2013-06-06 03:11:00,64.2,49.5,29.88,NNE,22,0.0,-999.0,59,0.00,,,0.00,open2300 v1.10,2013-06-06 07:11:00,
2013-06-06 03:21:00,64.0,49.9,29.87,NNE,22,0.0,-999.0,60,0.00,,,0.00,open2300 v1.10,2013-06-06 07:21:00,
2013-06-06 03:31:00,63.7,50.0,29.87,NNE,22,0.0,-999.0,61,0.00,,,0.00,open2300 v1.10,2013-06-06 07:31:00,
2013-06-06 03:41:00,63.5,49.4,29.87,NNE,22,0.0,-999.0,60,0.00,,,0.00,open2300 v1.10,2013-06-06 07:41:00,
2013-06-06 03:51:00,63.3,49.2,29.87,NNE,22,0.0,-999.0,60,0.00,,,0.00,open2300 v1.10,2013-06-06 07:51:00,
2013-06-06 04:01:00,63.1,49.0,29.87,NNE,22,0.0,-999.0,60,0.00,,,0.00,open2300 v1.10,2013-06-06 08:01:00,
2013-06-06 04:11:00,63.1,48.6,29.87,NNE,22,0.0,-999.0,59,0.00,,,0.00,open2300 v1.10,2013-06-06 08:11:00,
2013-06-06 04:21:00,63.0,48.4,29.87,NNE,22,0.0,-999.0,59,0.00,,,0.00,open2300 v1.10,2013-06-06 08:21:00,
2013-06-06 04:31:00,62.6,48.1,29.87,NNE,22,0.0,-999.0,59,0.00,,,0.00,open2300 v1.10,2013-06-06 08:31:00,
2013-06-06 04:41:00,62.4,47.9,29.86,NNE,22,0.0,-999.0,59,0.00,,,0.00,open2300 v1.10,2013-06-06 08:41:00,
2013-06-06 04:51:00,62.1,47.6,29.86,NNE,22,0.0,-999.0,59,0.00,,,0.00,open2300 v1.10,2013-06-06 08:51:00,
2013-06-06 05:01:00,61.9,47.4,29.86,NNE,22,0.0,-999.0,59,0.00,,,0.00,open2300 v1.10,2013-06-06 09:01:00,
2013-06-06 05:11:00,61.9,47.4,29.86,NNE,22,0.0,-999.0,59,0.00,,,0.00,open2300 v1.10,2013-06-06 09:11:00,
2013-06-06 05:21:00,61.7,47.8,29.86,NNE,22,0.0,-999.0,60,0.00,,,0.00,open2300 v1.10,2013-06-06 09:21:00,
2013-06-06 05:31:00,61.3,47.4,29.86,NNE,22,0.0,-999.0,60,0.00,,,0.00,open2300 v1.10,2013-06-06 09:31:00,
2013-06-06 05:41:00,61.3,47.8,29.86,NNE,22,0.0,-999.0,61,0.00,,,0.00,open2300 v1.10,2013-06-06 09:41:00,
2013-06-06 05:51:00,61.2,47.7,29.86,NNE,22,0.0,-999.0,61,0.00,,,0.00,open2300 v1.10,2013-06-06 09:51:00,
2013-06-06 06:01:00,61.0,47.5,29.86,NNE,22,0.0,-999.0,61,0.00,,,0.00,open2300 v1.10,2013-06-06 10:01:00,
2013-06-06 06:11:00,60.6,47.6,29.86,NNE,22,0.0,-999.0,62,0.00,,,0.00,open2300 v1.10,2013-06-06 10:11:00,
2013-06-06 06:21:00,60.6,47.6,29.85,NNE,22,0.0,-999.0,62,0.00,,,0.00,open2300 v1.10,2013-06-06 10:21:00,
2013-06-06 06:31:00,60.4,47.4,29.86,NNE,22,0.0,-999.0,62,0.00,,,0.00,open2300 v1.10,2013-06-06 10:31:00,
2013-06-06 06:41:00,60.1,47.5,29.86,NNE,22,0.0,-999.0,63,0.00,,,0.00,open2300 v1.10,2013-06-06 10:41:00,
2013-06-06 06:51:00,59.9,47.7,29.86,NNE,22,0.0,-999.0,64,0.00,,,0.00,open2300 v1.10,2013-06-06 10:51:00,
2013-06-06 07:01:00,59.7,47.5,29.86,NNE,22,0.0,-999.0,64,0.00,,,0.00,open2300 v1.10,2013-06-06 11:01:00,
2013-06-06 07:11:00,59.5,47.8,29.86,NNE,22,0.0,-999.0,65,0.00,,,0.00,open2300 v1.10,2013-06-06 11:11:00,
2013-06-06 07:21:00,59.2,47.4,29.86,NNE,22,0.0,-999.0,65,0.00,,,0.00,open2300 v1.10,2013-06-06 11:21:00,
2013-06-06 07:31:00,58.8,47.4,29.86,NNE,22,0.0,-999.0,66,0.00,,,0.00,open2300 v1.10,2013-06-06 11:31:00,
2013-06-06 07:41:00,58.8,47.4,29.86,NNE,22,0.0,-999.0,66,0.00,,,0.00,open2300 v1.10,2013-06-06 11:41:00,
2013-06-06 07:51:00,58.6,47.7,29.86,NNE,22,0.0,-999.0,67,0.00,,,0.00,open2300 v1.10,2013-06-06 11:51:00,
2013-06-06 08:01:00,58.6,48.1,29.86,NNE,22,0.0,-999.0,68,0.00,,,0.00,open2300 v1.10,2013-06-06 12:01:00,
2013-06-06 08:11:00,58.6,48.5,29.86,NNE,22,0.0,-999.0,69,0.00,,,0.00,open2300 v1.10,2013-06-06 12:11:00,
2013-06-06 08:21:00,58.8,48.7,29.86,NNE,22,0.0,-999.0,69,0.00,,,0.00,open2300 v1.10,2013-06-06 12:21:00,
2013-06-06 08:31:00,59.5,49.4,29.86,NNE,22,0.0,-999.0,69,0.00,,,0.00,open2300 v1.10,2013-06-06 12:31:00,
2013-06-06 08:41:00,60.6,50.5,29.86,NNE,22,0.0,-999.0,69,0.00,,,0.00,open2300 v1.10,2013-06-06 12:41:00,
2013-06-06 08:51:00,61.2,50.6,29.87,East,90,0.0,-999.0,68,0.00,,,0.00,open2300 v1.10,2013-06-06 12:51:00,
2013-06-06 09:01:00,61.5,50.5,29.87,East,90,0.0,-999.0,67,0.00,,,0.00,open2300 v1.10,2013-06-06 13:01:00,
2013-06-06 09:11:00,62.2,51.1,29.87,East,90,0.0,-999.0,67,0.00,,,0.00,open2300 v1.10,2013-06-06 13:11:00,
2013-06-06 09:21:00,62.4,51.3,29.87,East,90,0.0,-999.0,67,0.00,,,0.00,open2300 v1.10,2013-06-06 13:21:00,
2013-06-06 09:31:00,62.8,51.6,29.87,East,90,0.0,-999.0,67,0.00,,,0.00,open2300 v1.10,2013-06-06 13:31:00,
2013-06-06 09:41:00,63.3,52.1,29.87,East,90,0.0,-999.0,67,0.00,,,0.00,open2300 v1.10,2013-06-06 13:41:00,
2013-06-06 09:51:00,63.7,52.1,29.87,NNE,22,1.6,-999.0,66,0.00,,,0.00,open2300 v1.10,2013-06-06 13:51:00,
2013-06-06 10:01:00,64.6,53.4,29.87,NNE,22,0.0,-999.0,67,0.00,,,0.00,open2300 v1.10,2013-06-06 14:01:00,
2013-06-06 10:11:00,65.1,53.4,29.87,NNE,22,0.0,-999.0,66,0.00,,,0.00,open2300 v1.10,2013-06-06 14:11:00,
2013-06-06 10:21:00,65.1,53.0,29.87,NNE,22,0.0,-999.0,65,0.00,,,0.00,open2300 v1.10,2013-06-06 14:21:00,
2013-06-06 10:31:00,65.8,53.7,29.87,NNE,22,0.0,-999.0,65,0.00,,,0.00,open2300 v1.10,2013-06-06 14:31:00,
2013-06-06 10:41:00,66.7,55.0,29.86,NNE,22,0.0,-999.0,66,0.00,,,0.00,open2300 v1.10,2013-06-06 14:41:00,
2013-06-06 10:51:00,67.6,55.4,29.86,NNE,22,0.0,-999.0,65,0.00,,,0.00,open2300 v1.10,2013-06-06 14:51:00,
2013-06-06 11:01:00,68.2,55.9,29.86,NNE,22,0.0,-999.0,65,0.00,,,0.00,open2300 v1.10,2013-06-06 15:01:00,
2013-06-06 11:11:00,68.9,56.2,29.86,NNE,22,0.0,-999.0,64,0.00,,,0.00,open2300 v1.10,2013-06-06 15:11:00,
2013-06-06 11:21:00,69.4,56.3,29.86,NNE,22,0.0,-999.0,63,0.00,,,0.00,open2300 v1.10,2013-06-06 15:21:00,
2013-06-06 11:31:00,69.8,56.6,29.87,NNE,22,0.0,-999.0,63,0.00,,,0.00,open2300 v1.10,2013-06-06 15:31:00,
2013-06-06 11:41:00,70.3,56.7,29.86,NNE,22,0.0,-999.0,62,0.00,,,0.00,open2300 v1.10,2013-06-06 15:41:00,
2013-06-06 11:51:00,70.5,56.5,29.86,NNE,22,0.0,-999.0,61,0.00,,,0.00,open2300 v1.10,2013-06-06 15:51:00,
2013-06-06 12:01:00,70.5,56.9,29.86,NNE,22,0.0,-999.0,62,0.00,,,0.00,open2300 v1.10,2013-06-06 16:01:00,
2013-06-06 12:11:00,71.2,57.1,29.86,NNE,22,0.0,-999.0,61,0.00,,,0.00,open2300 v1.10,2013-06-06 16:11:00,
2013-06-06 12:21:00,71.4,57.3,29.87,NNE,22,0.0,-999.0,61,0.00,,,0.00,open2300 v1.10,2013-06-06 16:21:00,
2013-06-06 12:31:00,72.3,58.1,29.87,NNE,22,0.0,-999.0,61,0.00,,,0.00,open2300 v1.10,2013-06-06 16:31:00,
2013-06-06 12:41:00,73.0,58.8,29.87,NNE,22,0.0,-999.0,61,0.00,,,0.00,open2300 v1.10,2013-06-06 16:41:00,
2013-06-06 12:51:00,73.4,58.1,29.86,East,90,0.0,-999.0,59,0.00,,,0.00,open2300 v1.10,2013-06-06 16:51:00,
2013-06-06 13:01:00,73.6,57.8,29.86,East,90,0.0,-999.0,58,0.00,,,0.00,open2300 v1.10,2013-06-06 17:01:00,
2013-06-06 13:11:00,73.6,57.8,29.85,East,90,0.0,-999.0,58,0.00,,,0.00,open2300 v1.10,2013-06-06 17:11:00,
2013-06-06 13:21:00,74.1,58.3,29.86,NNE,22,0.0,-999.0,58,0.00,,,0.00,open2300 v1.10,2013-06-06 17:21:00,
2013-06-06 13:31:00,74.1,57.3,29.85,NNE,22,2.0,-999.0,56,0.00,,,0.00,open2300 v1.10,2013-06-06 17:31:00,
2013-06-06 13:41:00,73.9,57.2,29.85,NNE,22,0.0,-999.0,56,0.00,,,0.00,open2300 v1.10,2013-06-06 17:41:00,
2013-06-06 13:51:00,73.9,57.2,29.85,NNE,22,0.0,-999.0,56,0.00,,,0.00,open2300 v1.10,2013-06-06 17:51:00,
2013-06-06 14:01:00,74.1,57.3,29.85,East,90,0.0,-999.0,56,0.00,,,0.00,open2300 v1.10,2013-06-06 18:01:00,
2013-06-06 14:11:00,74.8,58.1,29.84,East,90,0.0,-999.0,56,0.00,,,0.00,open2300 v1.10,2013-06-06 18:11:00,
2013-06-06 14:21:00,75.0,58.2,29.84,East,90,0.0,-999.0,56,0.00,,,0.00,open2300 v1.10,2013-06-06 18:21:00,
2013-06-06 14:31:00,75.7,58.4,29.84,East,90,0.0,-999.0,55,0.00,,,0.00,open2300 v1.10,2013-06-06 18:31:00,
2013-06-06 14:41:00,76.8,59.4,29.84,East,90,0.0,-999.0,55,0.00,,,0.00,open2300 v1.10,2013-06-06 18:41:00,
2013-06-06 14:51:00,77.4,58.9,29.84,East,90,0.0,-999.0,53,0.00,,,0.00,open2300 v1.10,2013-06-06 18:51:00,
2013-06-06 15:01:00,77.4,58.9,29.84,East,90,0.0,-999.0,53,0.00,,,0.00,open2300 v1.10,2013-06-06 19:01:00,
2013-06-06 15:11:00,77.7,59.2,29.83,East,90,0.0,-999.0,53,0.00,,,0.00,open2300 v1.10,2013-06-06 19:11:00,
2013-06-06 15:21:00,78.1,59.0,29.83,East,90,2.5,-999.0,52,0.00,,,0.00,open2300 v1.10,2013-06-06 19:21:00,
2013-06-06 15:31:00,78.3,58.7,29.83,East,90,0.0,-999.0,51,0.00,,,0.00,open2300 v1.10,2013-06-06 19:31:00,
2013-06-06 15:41:00,78.6,59.0,29.83,East,90,0.0,-999.0,51,0.00,,,0.00,open2300 v1.10,2013-06-06 19:41:00,
2013-06-06 15:51:00,78.4,58.8,29.83,East,90,0.0,-999.0,51,0.00,,,0.00,open2300 v1.10,2013-06-06 19:51:00,
2013-06-06 16:01:00,78.6,59.5,29.83,NNE,22,0.0,-999.0,52,0.00,,,0.00,open2300 v1.10,2013-06-06 20:01:00,
2013-06-06 16:11:00,79.2,59.0,29.83,NNE,22,0.0,-999.0,50,0.00,,,0.00,open2300 v1.10,2013-06-06 20:11:00,
2013-06-06 16:21:00,79.2,59.0,29.83,NNE,22,0.0,-999.0,50,0.00,,,0.00,open2300 v1.10,2013-06-06 20:21:00,
2013-06-06 16:31:00,79.2,58.3,29.84,NNE,22,0.0,-999.0,49,0.00,,,0.00,open2300 v1.10,2013-06-06 20:31:00,
2013-06-06 16:41:00,79.3,59.1,29.84,NNE,22,0.0,-999.0,50,0.00,,,0.00,open2300 v1.10,2013-06-06 20:41:00,
2013-06-06 16:51:00,79.3,58.5,29.84,NNE,22,0.0,-999.0,49,0.00,,,0.00,open2300 v1.10,2013-06-06 20:51:00,
2013-06-06 17:01:00,79.9,59.0,29.84,East,90,0.0,-999.0,49,0.00,,,0.00,open2300 v1.10,2013-06-06 21:01:00,
2013-06-06 17:11:00,79.7,57.6,29.83,NNE,22,0.0,-999.0,47,0.00,,,0.00,open2300 v1.10,2013-06-06 21:11:00,
2013-06-06 17:21:00,79.3,57.9,29.83,NNE,22,0.0,-999.0,48,0.00,,,0.00,open2300 v1.10,2013-06-06 21:21:00,
2013-06-06 17:31:00,79.7,58.2,29.83,NNE,22,0.0,-999.0,48,0.00,,,0.00,open2300 v1.10,2013-06-06 21:31:00,
2013-06-06 17:41:00,79.5,57.5,29.83,NNE,22,0.0,-999.0,47,0.00,,,0.00,open2300 v1.10,2013-06-06 21:41:00,
2013-06-06 17:51:00,78.6,56.6,29.83,NNE,22,1.1,-999.0,47,0.00,,,0.00,open2300 v1.10,2013-06-06 21:51:00,
2013-06-06 18:01:00,78.3,56.3,29.83,NNE,22,0.0,-999.0,47,0.00,,,0.00,open2300 v1.10,2013-06-06 22:01:00,
2013-06-06 18:11:00,77.5,55.7,29.83,NNE,22,0.0,-999.0,47,0.00,,,0.00,open2300 v1.10,2013-06-06 22:11:00,
2013-06-06 18:21:00,77.7,57.1,29.83,NNE,22,0.0,-999.0,49,0.00,,,0.00,open2300 v1.10,2013-06-06 22:21:00,
2013-06-06 18:31:00,77.9,57.2,29.83,NNE,22,0.0,-999.0,49,0.00,,,0.00,open2300 v1.10,2013-06-06 22:31:00,
2013-06-06 18:41:00,77.9,56.6,29.83,NNE,22,0.0,-999.0,48,0.00,,,0.00,open2300 v1.10,2013-06-06 22:41:00,
2013-06-06 18:51:00,77.2,57.2,29.83,NNE,22,0.0,-999.0,50,0.00,,,0.00,open2300 v1.10,2013-06-06 22:51:00,
2013-06-06 19:01:00,76.5,57.0,29.83,NNE,22,2.7,-999.0,51,0.00,,,0.00,open2300 v1.10,2013-06-06 23:01:00,
2013-06-06 19:11:00,75.7,56.4,29.83,NNE,22,2.5,-999.0,51,0.00,,,0.00,open2300 v1.10,2013-06-06 23:11:00,
2013-06-06 19:21:00,75.0,56.2,29.83,NNE,22,0.0,-999.0,52,0.00,,,0.00,open2300 v1.10,2013-06-06 23:21:00,
2013-06-06 19:31:00,74.5,56.2,29.83,NNE,22,2.9,-999.0,53,0.00,,,0.00,open2300 v1.10,2013-06-06 23:31:00,
2013-06-06 19:41:00,73.8,56.5,29.83,NNE,22,2.2,-999.0,55,0.00,,,0.00,open2300 v1.10,2013-06-06 23:41:00,
2013-06-06 19:51:00,73.2,56.0,29.84,NNE,22,2.0,-999.0,55,0.00,,,0.00,open2300 v1.10,2013-06-06 23:51:00,
2013-06-06 20:01:00,72.7,56.0,29.84,NNE,22,0.0,-999.0,56,0.00,,,0.00,open2300 v1.10,2013-06-07 00:01:00,
2013-06-06 20:11:00,72.3,55.7,29.84,NNE,22,7.4,-999.0,56,0.00,,,0.00,open2300 v1.10,2013-06-07 00:11:00,
2013-06-06 20:21:00,72.0,55.3,29.84,NNE,22,1.6,-999.0,56,0.00,,,0.00,open2300 v1.10,2013-06-07 00:21:00,
2013-06-06 20:31:00,71.6,55.0,29.84,NNE,22,2.9,-999.0,56,0.00,,,0.00,open2300 v1.10,2013-06-07 00:31:00,
2013-06-06 20:41:00,70.9,54.4,29.84,NNE,22,0.0,-999.0,56,0.00,,,0.00,open2300 v1.10,2013-06-07 00:41:00,
2013-06-06 20:51:00,70.0,53.5,29.84,NNE,22,5.8,-999.0,56,0.00,,,0.00,open2300 v1.10,2013-06-07 00:51:00,
2013-06-06 21:01:00,69.4,53.0,29.85,NNE,22,7.2,-999.0,56,0.00,,,0.00,open2300 v1.10,2013-06-07 01:01:00,
2013-06-06 21:11:00,68.5,53.2,29.85,NNE,22,3.1,-999.0,58,0.00,,,0.00,open2300 v1.10,2013-06-07 01:11:00,
2013-06-06 21:21:00,67.8,52.5,29.85,NNE,22,2.2,-999.0,58,0.00,,,0.00,open2300 v1.10,2013-06-07 01:21:00,
2013-06-06 21:31:00,67.3,52.5,29.85,NNE,22,4.7,-999.0,59,0.00,,,0.00,open2300 v1.10,2013-06-07 01:31:00,
2013-06-06 21:41:00,66.7,52.0,29.86,NNE,22,4.7,-999.0,59,0.00,,,0.00,open2300 v1.10,2013-06-07 01:41:00,
2013-06-06 21:51:00,66.4,52.1,29.86,NNE,22,2.0,-999.0,60,0.00,,,0.00,open2300 v1.10,2013-06-07 01:51:00,
2013-06-06 22:01:00,66.0,51.8,29.86,NNE,22,6.3,-999.0,60,0.00,,,0.00,open2300 v1.10,2013-06-07 02:01:00,
2013-06-06 22:11:00,65.7,51.8,29.87,NNE,22,2.0,-999.0,61,0.00,,,0.00,open2300 v1.10,2013-06-07 02:11:00,
2013-06-06 22:21:00,65.3,51.9,29.87,NNE,22,4.2,-999.0,62,0.00,,,0.00,open2300 v1.10,2013-06-07 02:21:00,
2013-06-06 22:31:00,65.1,52.2,29.87,NNE,22,2.0,-999.0,63,0.00,,,0.00,open2300 v1.10,2013-06-07 02:31:00,
2013-06-06 22:41:00,64.6,52.1,29.87,NNE,22,3.8,-999.0,64,0.00,,,0.00,open2300 v1.10,2013-06-07 02:41:00,
2013-06-06 22:51:00,64.2,52.2,29.88,NNE,22,1.1,-999.0,65,0.00,,,0.00,open2300 v1.10,2013-06-07 02:51:00,
2013-06-06 23:01:00,63.9,52.2,29.88,NNE,22,1.8,-999.0,66,0.00,,,0.00,open2300 v1.10,2013-06-07 03:01:00,
2013-06-06 23:11:00,63.3,51.7,29.89,NNE,22,0.0,-999.0,66,0.00,,,0.00,open2300 v1.10,2013-06-07 03:11:00,
2013-06-06 23:21:00,63.0,51.8,29.89,NNE,22,0.0,-999.0,67,0.00,,,0.00,open2300 v1.10,2013-06-07 03:21:00,
2013-06-06 23:31:00,62.8,52.0,29.89,NNE,22,4.7,-999.0,68,0.00,,,0.00,open2300 v1.10,2013-06-07 03:31:00,
2013-06-06 23:41:00,62.4,52.1,29.89,NNE,22,1.6,-999.0,69,0.00,,,0.00,open2300 v1.10,2013-06-07 03:41:00,
2013-06-06 23:51:00,61.9,51.6,29.88,NNE,22,1.6,-999.0,69,0.00,,,0.00,open2300 v1.10,2013-06-07 03:51:00,